SULAYMANIYAH INTERNATIONAL AIRPORT
  • SulyAir
  • SulyAir
1 1
Arrival

ArrivalsMore >>

Departure

DeparturesMore >>

TAF

TAF ORSU 181100Z 1812/1912 28012KT CAVOK
BECMG 1817/1819 34006KT
BECMG 1908/1910 28014KT=

METARs

METAR ORSU 181400Z 30013KT 9999 FEW045 SCT180 43/M03 Q1004=